sensor_id;sensor_type;location;lat;lon;timestamp;P1;durP1;ratioP1;P2;durP2;ratioP2
60478;SDS011;46321;48.398;11.754;2023-02-28T00:00:46;8.48;;;3.65;;
60478;SDS011;46321;48.398;11.754;2023-02-28T00:03:11;7.43;;;3.70;;
60478;SDS011;46321;48.398;11.754;2023-02-28T00:05:36;9.27;;;3.97;;
60478;SDS011;46321;48.398;11.754;2023-02-28T00:08:02;6.47;;;3.88;;
60478;SDS011;46321;48.398;11.754;2023-02-28T00:10:28;7.22;;;3.33;;
60478;SDS011;46321;48.398;11.754;2023-02-28T00:12:59;7.47;;;4.00;;
60478;SDS011;46321;48.398;11.754;2023-02-28T00:15:27;7.55;;;3.67;;
60478;SDS011;46321;48.398;11.754;2023-02-28T00:17:53;5.68;;;3.25;;
60478;SDS011;46321;48.398;11.754;2023-02-28T00:20:18;5.78;;;3.15;;
60478;SDS011;46321;48.398;11.754;2023-02-28T00:22:45;6.50;;;3.28;;
60478;SDS011;46321;48.398;11.754;2023-02-28T00:25:13;6.60;;;3.58;;
60478;SDS011;46321;48.398;11.754;2023-02-28T00:27:40;8.07;;;4.00;;
60478;SDS011;46321;48.398;11.754;2023-02-28T00:30:06;6.55;;;3.25;;
60478;SDS011;46321;48.398;11.754;2023-02-28T00:32:33;8.32;;;3.65;;
60478;SDS011;46321;48.398;11.754;2023-02-28T00:35:00;9.20;;;3.85;;
60478;SDS011;46321;48.398;11.754;2023-02-28T00:37:25;5.47;;;3.42;;
60478;SDS011;46321;48.398;11.754;2023-02-28T00:39:51;6.93;;;3.70;;
60478;SDS011;46321;48.398;11.754;2023-02-28T00:42:16;5.25;;;3.03;;
60478;SDS011;46321;48.398;11.754;2023-02-28T00:44:41;7.03;;;3.20;;
60478;SDS011;46321;48.398;11.754;2023-02-28T00:47:06;6.93;;;3.47;;
60478;SDS011;46321;48.398;11.754;2023-02-28T00:49:32;8.55;;;3.63;;
60478;SDS011;46321;48.398;11.754;2023-02-28T00:51:57;5.13;;;3.03;;
60478;SDS011;46321;48.398;11.754;2023-02-28T00:54:22;7.13;;;3.05;;
60478;SDS011;46321;48.398;11.754;2023-02-28T00:56:48;7.50;;;3.50;;
60478;SDS011;46321;48.398;11.754;2023-02-28T00:59:14;5.40;;;2.95;;
60478;SDS011;46321;48.398;11.754;2023-02-28T01:01:41;6.00;;;3.10;;
60478;SDS011;46321;48.398;11.754;2023-02-28T01:04:08;7.05;;;3.33;;
60478;SDS011;46321;48.398;11.754;2023-02-28T01:06:33;6.13;;;3.15;;
60478;SDS011;46321;48.398;11.754;2023-02-28T01:08:59;7.35;;;3.65;;
60478;SDS011;46321;48.398;11.754;2023-02-28T01:11:24;7.93;;;3.65;;
60478;SDS011;46321;48.398;11.754;2023-02-28T01:13:50;8.43;;;3.13;;
60478;SDS011;46321;48.398;11.754;2023-02-28T01:16:15;6.90;;;3.40;;
60478;SDS011;46321;48.398;11.754;2023-02-28T01:18:41;9.48;;;3.40;;
60478;SDS011;46321;48.398;11.754;2023-02-28T01:21:07;6.90;;;3.70;;
60478;SDS011;46321;48.398;11.754;2023-02-28T01:23:34;6.75;;;3.30;;
60478;SDS011;46321;48.398;11.754;2023-02-28T01:26:04;8.23;;;3.70;;
60478;SDS011;46321;48.398;11.754;2023-02-28T01:28:30;9.98;;;3.70;;
60478;SDS011;46321;48.398;11.754;2023-02-28T01:30:56;8.57;;;3.85;;
60478;SDS011;46321;48.398;11.754;2023-02-28T01:33:21;8.77;;;4.10;;
60478;SDS011;46321;48.398;11.754;2023-02-28T01:35:47;8.88;;;3.55;;
60478;SDS011;46321;48.398;11.754;2023-02-28T01:38:13;7.38;;;3.65;;
60478;SDS011;46321;48.398;11.754;2023-02-28T01:40:39;9.10;;;4.05;;
60478;SDS011;46321;48.398;11.754;2023-02-28T01:43:05;7.75;;;3.72;;
60478;SDS011;46321;48.398;11.754;2023-02-28T01:45:43;7.75;;;3.63;;
60478;SDS011;46321;48.398;11.754;2023-02-28T01:48:09;9.13;;;4.10;;
60478;SDS011;46321;48.398;11.754;2023-02-28T01:50:35;8.00;;;3.60;;
60478;SDS011;46321;48.398;11.754;2023-02-28T01:53:06;6.00;;;3.20;;
60478;SDS011;46321;48.398;11.754;2023-02-28T01:55:35;7.90;;;3.38;;
60478;SDS011;46321;48.398;11.754;2023-02-28T01:58:02;7.15;;;3.75;;
60478;SDS011;46321;48.398;11.754;2023-02-28T02:00:30;6.28;;;3.63;;
60478;SDS011;46321;48.398;11.754;2023-02-28T02:02:57;8.30;;;3.83;;
60478;SDS011;46321;48.398;11.754;2023-02-28T02:05:25;8.68;;;3.67;;
60478;SDS011;46321;48.398;11.754;2023-02-28T02:07:56;8.73;;;3.65;;
60478;SDS011;46321;48.398;11.754;2023-02-28T02:13:09;6.78;;;3.70;;
60478;SDS011;46321;48.398;11.754;2023-02-28T02:27:14;7.65;;;3.97;;
60478;SDS011;46321;48.398;11.754;2023-02-28T02:35:13;8.05;;;4.10;;
60478;SDS011;46321;48.398;11.754;2023-02-28T02:37:51;11.38;;;4.07;;
60478;SDS011;46321;48.398;11.754;2023-02-28T02:40:28;8.57;;;4.32;;
60478;SDS011;46321;48.398;11.754;2023-02-28T02:43:03;9.90;;;4.72;;
60478;SDS011;46321;48.398;11.754;2023-02-28T02:45:32;9.38;;;4.20;;
60478;SDS011;46321;48.398;11.754;2023-02-28T02:48:03;7.68;;;4.20;;
60478;SDS011;46321;48.398;11.754;2023-02-28T02:50:34;10.02;;;4.18;;
60478;SDS011;46321;48.398;11.754;2023-02-28T02:53:03;6.65;;;4.15;;
60478;SDS011;46321;48.398;11.754;2023-02-28T02:55:31;8.43;;;4.30;;
60478;SDS011;46321;48.398;11.754;2023-02-28T02:58:00;8.48;;;4.30;;
60478;SDS011;46321;48.398;11.754;2023-02-28T03:00:35;10.98;;;4.40;;
60478;SDS011;46321;48.398;11.754;2023-02-28T03:03:04;8.43;;;3.92;;
60478;SDS011;46321;48.398;11.754;2023-02-28T03:05:36;8.55;;;4.05;;
60478;SDS011;46321;48.398;11.754;2023-02-28T03:08:07;11.27;;;5.00;;
60478;SDS011;46321;48.398;11.754;2023-02-28T03:10:40;7.53;;;4.43;;
60478;SDS011;46321;48.398;11.754;2023-02-28T03:15:58;12.90;;;4.80;;
60478;SDS011;46321;48.398;11.754;2023-02-28T03:19:00;9.23;;;4.35;;
60478;SDS011;46321;48.398;11.754;2023-02-28T03:24:27;10.75;;;4.50;;
60478;SDS011;46321;48.398;11.754;2023-02-28T03:27:02;12.52;;;4.55;;
60478;SDS011;46321;48.398;11.754;2023-02-28T03:29:35;10.65;;;4.65;;
60478;SDS011;46321;48.398;11.754;2023-02-28T03:32:11;9.15;;;4.35;;
60478;SDS011;46321;48.398;11.754;2023-02-28T03:35:02;8.20;;;4.55;;
60478;SDS011;46321;48.398;11.754;2023-02-28T03:37:40;10.82;;;4.53;;
60478;SDS011;46321;48.398;11.754;2023-02-28T03:40:10;10.45;;;4.57;;
60478;SDS011;46321;48.398;11.754;2023-02-28T03:42:39;9.35;;;4.30;;
60478;SDS011;46321;48.398;11.754;2023-02-28T03:45:11;11.20;;;4.88;;
60478;SDS011;46321;48.398;11.754;2023-02-28T03:47:42;10.65;;;5.22;;
60478;SDS011;46321;48.398;11.754;2023-02-28T03:52:42;9.80;;;4.57;;
60478;SDS011;46321;48.398;11.754;2023-02-28T03:55:13;9.70;;;4.65;;
60478;SDS011;46321;48.398;11.754;2023-02-28T03:57:52;10.38;;;4.50;;
60478;SDS011;46321;48.398;11.754;2023-02-28T04:00:26;10.73;;;5.13;;
60478;SDS011;46321;48.398;11.754;2023-02-28T04:02:54;11.13;;;5.40;;
60478;SDS011;46321;48.398;11.754;2023-02-28T04:05:21;10.40;;;4.85;;
60478;SDS011;46321;48.398;11.754;2023-02-28T04:07:47;11.50;;;4.70;;
60478;SDS011;46321;48.398;11.754;2023-02-28T04:10:13;12.77;;;5.55;;
60478;SDS011;46321;48.398;11.754;2023-02-28T04:12:39;9.60;;;4.85;;
60478;SDS011;46321;48.398;11.754;2023-02-28T04:15:05;11.30;;;4.90;;
60478;SDS011;46321;48.398;11.754;2023-02-28T04:17:31;11.20;;;4.80;;
60478;SDS011;46321;48.398;11.754;2023-02-28T04:19:56;10.18;;;5.32;;
60478;SDS011;46321;48.398;11.754;2023-02-28T04:22:22;10.85;;;5.50;;
60478;SDS011;46321;48.398;11.754;2023-02-28T04:24:47;10.80;;;5.32;;
60478;SDS011;46321;48.398;11.754;2023-02-28T04:27:12;9.75;;;4.65;;
60478;SDS011;46321;48.398;11.754;2023-02-28T04:29:37;10.95;;;5.70;;
60478;SDS011;46321;48.398;11.754;2023-02-28T04:32:03;13.80;;;5.50;;
60478;SDS011;46321;48.398;11.754;2023-02-28T04:34:30;11.35;;;5.13;;
60478;SDS011;46321;48.398;11.754;2023-02-28T04:36:56;14.70;;;5.15;;
60478;SDS011;46321;48.398;11.754;2023-02-28T04:39:23;11.77;;;5.43;;
60478;SDS011;46321;48.398;11.754;2023-02-28T04:41:49;12.50;;;5.65;;
60478;SDS011;46321;48.398;11.754;2023-02-28T04:44:14;12.07;;;5.65;;
60478;SDS011;46321;48.398;11.754;2023-02-28T04:46:40;9.75;;;4.78;;
60478;SDS011;46321;48.398;11.754;2023-02-28T04:49:06;12.23;;;5.15;;
60478;SDS011;46321;48.398;11.754;2023-02-28T04:51:32;12.40;;;5.68;;
60478;SDS011;46321;48.398;11.754;2023-02-28T04:53:58;15.52;;;5.95;;
60478;SDS011;46321;48.398;11.754;2023-02-28T04:56:23;12.20;;;5.53;;
60478;SDS011;46321;48.398;11.754;2023-02-28T04:58:49;14.20;;;5.93;;
60478;SDS011;46321;48.398;11.754;2023-02-28T05:01:29;11.90;;;5.57;;
60478;SDS011;46321;48.398;11.754;2023-02-28T05:03:59;14.60;;;6.05;;
60478;SDS011;46321;48.398;11.754;2023-02-28T05:06:27;12.00;;;5.60;;
60478;SDS011;46321;48.398;11.754;2023-02-28T05:08:53;12.88;;;6.05;;
60478;SDS011;46321;48.398;11.754;2023-02-28T05:11:20;14.18;;;5.63;;
60478;SDS011;46321;48.398;11.754;2023-02-28T05:13:48;13.10;;;6.15;;
60478;SDS011;46321;48.398;11.754;2023-02-28T05:16:15;11.90;;;5.80;;
60478;SDS011;46321;48.398;11.754;2023-02-28T05:18:41;18.02;;;6.18;;
60478;SDS011;46321;48.398;11.754;2023-02-28T05:21:12;14.15;;;6.32;;
60478;SDS011;46321;48.398;11.754;2023-02-28T05:23:52;13.60;;;5.85;;
60478;SDS011;46321;48.398;11.754;2023-02-28T05:26:18;12.35;;;6.07;;
60478;SDS011;46321;48.398;11.754;2023-02-28T05:28:44;14.70;;;6.10;;
60478;SDS011;46321;48.398;11.754;2023-02-28T05:31:12;11.45;;;6.00;;
60478;SDS011;46321;48.398;11.754;2023-02-28T05:33:38;12.52;;;5.80;;
60478;SDS011;46321;48.398;11.754;2023-02-28T05:36:04;12.38;;;5.82;;
60478;SDS011;46321;48.398;11.754;2023-02-28T05:38:30;13.20;;;6.45;;
60478;SDS011;46321;48.398;11.754;2023-02-28T05:40:55;11.02;;;5.93;;
60478;SDS011;46321;48.398;11.754;2023-02-28T05:43:21;15.07;;;6.57;;
60478;SDS011;46321;48.398;11.754;2023-02-28T05:45:46;11.63;;;6.03;;
60478;SDS011;46321;48.398;11.754;2023-02-28T05:48:12;13.43;;;5.88;;
60478;SDS011;46321;48.398;11.754;2023-02-28T05:50:37;13.38;;;5.97;;
60478;SDS011;46321;48.398;11.754;2023-02-28T05:53:02;13.65;;;6.55;;
60478;SDS011;46321;48.398;11.754;2023-02-28T05:55:28;13.98;;;6.20;;
60478;SDS011;46321;48.398;11.754;2023-02-28T05:57:53;10.25;;;5.82;;
60478;SDS011;46321;48.398;11.754;2023-02-28T06:00:19;15.85;;;6.60;;
60478;SDS011;46321;48.398;11.754;2023-02-28T06:02:44;13.55;;;6.38;;
60478;SDS011;46321;48.398;11.754;2023-02-28T06:05:13;13.27;;;6.63;;
60478;SDS011;46321;48.398;11.754;2023-02-28T06:07:40;19.35;;;6.75;;
60478;SDS011;46321;48.398;11.754;2023-02-28T06:10:05;14.27;;;6.10;;
60478;SDS011;46321;48.398;11.754;2023-02-28T06:12:31;14.15;;;6.35;;
60478;SDS011;46321;48.398;11.754;2023-02-28T06:14:56;16.88;;;7.05;;
60478;SDS011;46321;48.398;11.754;2023-02-28T06:17:21;15.50;;;6.72;;
60478;SDS011;46321;48.398;11.754;2023-02-28T06:19:47;12.52;;;6.57;;
60478;SDS011;46321;48.398;11.754;2023-02-28T06:22:13;16.55;;;6.80;;
60478;SDS011;46321;48.398;11.754;2023-02-28T06:24:38;16.60;;;6.80;;
60478;SDS011;46321;48.398;11.754;2023-02-28T06:27:03;14.30;;;6.55;;
60478;SDS011;46321;48.398;11.754;2023-02-28T06:29:30;14.20;;;6.53;;
60478;SDS011;46321;48.398;11.754;2023-02-28T06:31:56;16.05;;;6.35;;
60478;SDS011;46321;48.398;11.754;2023-02-28T06:34:21;16.92;;;6.60;;
60478;SDS011;46321;48.398;11.754;2023-02-28T06:36:47;15.20;;;6.93;;
60478;SDS011;46321;48.398;11.754;2023-02-28T06:39:15;17.35;;;6.90;;
60478;SDS011;46321;48.398;11.754;2023-02-28T06:41:41;15.95;;;7.22;;
60478;SDS011;46321;48.398;11.754;2023-02-28T06:44:16;15.77;;;7.45;;
60478;SDS011;46321;48.398;11.754;2023-02-28T06:46:43;14.52;;;7.25;;
60478;SDS011;46321;48.398;11.754;2023-02-28T06:49:10;15.07;;;6.90;;
60478;SDS011;46321;48.398;11.754;2023-02-28T06:51:36;14.45;;;6.22;;
60478;SDS011;46321;48.398;11.754;2023-02-28T06:54:03;16.40;;;6.60;;
60478;SDS011;46321;48.398;11.754;2023-02-28T06:56:30;16.27;;;6.43;;
60478;SDS011;46321;48.398;11.754;2023-02-28T06:58:55;16.80;;;7.07;;
60478;SDS011;46321;48.398;11.754;2023-02-28T07:01:21;14.50;;;7.00;;
60478;SDS011;46321;48.398;11.754;2023-02-28T07:03:48;15.30;;;6.70;;
60478;SDS011;46321;48.398;11.754;2023-02-28T07:06:17;11.80;;;6.13;;
60478;SDS011;46321;48.398;11.754;2023-02-28T07:08:49;14.13;;;6.72;;
60478;SDS011;46321;48.398;11.754;2023-02-28T07:11:16;14.25;;;6.32;;
60478;SDS011;46321;48.398;11.754;2023-02-28T07:13:41;16.50;;;7.40;;
60478;SDS011;46321;48.398;11.754;2023-02-28T07:16:08;13.45;;;6.53;;
60478;SDS011;46321;48.398;11.754;2023-02-28T07:18:35;13.23;;;7.00;;
60478;SDS011;46321;48.398;11.754;2023-02-28T07:21:05;14.43;;;7.22;;
60478;SDS011;46321;48.398;11.754;2023-02-28T07:23:31;16.98;;;7.43;;
60478;SDS011;46321;48.398;11.754;2023-02-28T07:25:57;15.52;;;7.85;;
60478;SDS011;46321;48.398;11.754;2023-02-28T07:28:22;14.65;;;7.32;;
60478;SDS011;46321;48.398;11.754;2023-02-28T07:30:48;13.50;;;6.35;;
60478;SDS011;46321;48.398;11.754;2023-02-28T07:33:13;13.48;;;6.78;;
60478;SDS011;46321;48.398;11.754;2023-02-28T07:35:39;15.82;;;7.50;;
60478;SDS011;46321;48.398;11.754;2023-02-28T07:38:04;15.45;;;7.25;;
60478;SDS011;46321;48.398;11.754;2023-02-28T07:40:30;13.88;;;6.65;;
60478;SDS011;46321;48.398;11.754;2023-02-28T07:42:55;14.98;;;7.28;;
60478;SDS011;46321;48.398;11.754;2023-02-28T07:45:21;14.52;;;6.78;;
60478;SDS011;46321;48.398;11.754;2023-02-28T07:47:46;14.07;;;6.80;;
60478;SDS011;46321;48.398;11.754;2023-02-28T07:50:12;15.32;;;7.18;;
60478;SDS011;46321;48.398;11.754;2023-02-28T07:52:40;13.30;;;6.75;;
60478;SDS011;46321;48.398;11.754;2023-02-28T07:55:06;12.35;;;6.47;;
60478;SDS011;46321;48.398;11.754;2023-02-28T07:57:33;15.25;;;6.85;;
60478;SDS011;46321;48.398;11.754;2023-02-28T07:59:58;17.98;;;7.75;;
60478;SDS011;46321;48.398;11.754;2023-02-28T08:02:23;14.30;;;7.25;;
60478;SDS011;46321;48.398;11.754;2023-02-28T08:04:49;13.90;;;6.90;;
60478;SDS011;46321;48.398;11.754;2023-02-28T08:07:14;14.50;;;7.65;;
60478;SDS011;46321;48.398;11.754;2023-02-28T08:09:40;16.00;;;7.10;;
60478;SDS011;46321;48.398;11.754;2023-02-28T08:12:06;18.13;;;8.02;;
60478;SDS011;46321;48.398;11.754;2023-02-28T08:14:32;13.27;;;7.20;;
60478;SDS011;46321;48.398;11.754;2023-02-28T08:16:57;16.33;;;7.32;;
60478;SDS011;46321;48.398;11.754;2023-02-28T08:19:22;13.13;;;6.68;;
60478;SDS011;46321;48.398;11.754;2023-02-28T08:21:48;10.73;;;6.00;;
60478;SDS011;46321;48.398;11.754;2023-02-28T08:24:13;12.02;;;6.43;;
60478;SDS011;46321;48.398;11.754;2023-02-28T08:26:38;12.57;;;6.25;;
60478;SDS011;46321;48.398;11.754;2023-02-28T08:29:04;15.70;;;6.70;;
60478;SDS011;46321;48.398;11.754;2023-02-28T08:31:29;11.85;;;6.97;;
60478;SDS011;46321;48.398;11.754;2023-02-28T08:33:54;12.60;;;7.05;;
60478;SDS011;46321;48.398;11.754;2023-02-28T08:36:22;14.02;;;6.47;;
60478;SDS011;46321;48.398;11.754;2023-02-28T08:38:48;14.45;;;6.57;;
60478;SDS011;46321;48.398;11.754;2023-02-28T08:41:13;13.40;;;6.38;;
60478;SDS011;46321;48.398;11.754;2023-02-28T08:43:39;16.20;;;7.50;;
60478;SDS011;46321;48.398;11.754;2023-02-28T08:46:05;13.43;;;6.10;;
60478;SDS011;46321;48.398;11.754;2023-02-28T08:48:31;15.23;;;7.25;;
60478;SDS011;46321;48.398;11.754;2023-02-28T08:51:00;14.82;;;6.88;;
60478;SDS011;46321;48.398;11.754;2023-02-28T08:53:30;14.73;;;7.28;;
60478;SDS011;46321;48.398;11.754;2023-02-28T08:55:59;14.75;;;6.97;;
60478;SDS011;46321;48.398;11.754;2023-02-28T08:58:25;17.58;;;7.63;;
60478;SDS011;46321;48.398;11.754;2023-02-28T09:00:51;14.30;;;7.03;;
60478;SDS011;46321;48.398;11.754;2023-02-28T09:03:17;12.25;;;6.97;;
60478;SDS011;46321;48.398;11.754;2023-02-28T09:05:59;11.38;;;6.82;;
60478;SDS011;46321;48.398;11.754;2023-02-28T09:08:26;13.10;;;7.25;;
60478;SDS011;46321;48.398;11.754;2023-02-28T09:10:52;11.77;;;6.82;;
60478;SDS011;46321;48.398;11.754;2023-02-28T09:13:19;13.38;;;7.45;;
60478;SDS011;46321;48.398;11.754;2023-02-28T09:15:45;13.20;;;7.50;;
60478;SDS011;46321;48.398;11.754;2023-02-28T09:18:10;12.80;;;7.20;;
60478;SDS011;46321;48.398;11.754;2023-02-28T09:20:39;12.82;;;7.18;;
60478;SDS011;46321;48.398;11.754;2023-02-28T09:23:06;12.65;;;7.22;;
60478;SDS011;46321;48.398;11.754;2023-02-28T09:25:32;14.15;;;7.70;;
60478;SDS011;46321;48.398;11.754;2023-02-28T09:27:58;11.75;;;7.47;;
60478;SDS011;46321;48.398;11.754;2023-02-28T09:30:23;12.27;;;7.75;;
60478;SDS011;46321;48.398;11.754;2023-02-28T09:32:48;10.77;;;7.00;;
60478;SDS011;46321;48.398;11.754;2023-02-28T09:35:20;15.10;;;7.68;;
60478;SDS011;46321;48.398;11.754;2023-02-28T09:37:47;15.85;;;8.20;;
60478;SDS011;46321;48.398;11.754;2023-02-28T09:40:14;12.50;;;7.05;;
60478;SDS011;46321;48.398;11.754;2023-02-28T09:42:42;12.82;;;7.60;;
60478;SDS011;46321;48.398;11.754;2023-02-28T09:45:31;14.23;;;8.05;;
60478;SDS011;46321;48.398;11.754;2023-02-28T09:48:01;12.68;;;7.20;;
60478;SDS011;46321;48.398;11.754;2023-02-28T09:50:30;11.65;;;7.35;;
60478;SDS011;46321;48.398;11.754;2023-02-28T09:53:02;12.60;;;7.20;;
60478;SDS011;46321;48.398;11.754;2023-02-28T09:55:42;10.25;;;6.78;;
60478;SDS011;46321;48.398;11.754;2023-02-28T09:58:15;11.13;;;7.35;;
60478;SDS011;46321;48.398;11.754;2023-02-28T10:00:48;12.05;;;7.75;;
60478;SDS011;46321;48.398;11.754;2023-02-28T10:03:29;11.77;;;7.72;;
60478;SDS011;46321;48.398;11.754;2023-02-28T10:06:02;14.13;;;7.55;;
60478;SDS011;46321;48.398;11.754;2023-02-28T10:08:30;10.43;;;7.20;;
60478;SDS011;46321;48.398;11.754;2023-02-28T10:11:01;11.95;;;8.00;;
60478;SDS011;46321;48.398;11.754;2023-02-28T10:15:58;12.40;;;7.57;;
60478;SDS011;46321;48.398;11.754;2023-02-28T10:18:31;12.80;;;7.97;;
60478;SDS011;46321;48.398;11.754;2023-02-28T10:23:59;10.70;;;7.10;;
60478;SDS011;46321;48.398;11.754;2023-02-28T10:26:29;12.20;;;7.88;;
60478;SDS011;46321;48.398;11.754;2023-02-28T10:28:56;12.45;;;7.50;;
60478;SDS011;46321;48.398;11.754;2023-02-28T10:31:21;14.65;;;8.48;;
60478;SDS011;46321;48.398;11.754;2023-02-28T10:33:47;12.90;;;8.52;;
60478;SDS011;46321;48.398;11.754;2023-02-28T10:36:17;12.00;;;8.20;;
60478;SDS011;46321;48.398;11.754;2023-02-28T10:38:45;13.52;;;7.85;;
60478;SDS011;46321;48.398;11.754;2023-02-28T10:41:13;10.98;;;7.57;;
60478;SDS011;46321;48.398;11.754;2023-02-28T10:43:41;12.93;;;8.02;;
60478;SDS011;46321;48.398;11.754;2023-02-28T10:46:11;12.02;;;8.13;;
60478;SDS011;46321;48.398;11.754;2023-02-28T10:48:57;13.77;;;8.15;;
60478;SDS011;46321;48.398;11.754;2023-02-28T10:51:26;13.95;;;8.05;;
60478;SDS011;46321;48.398;11.754;2023-02-28T10:54:01;11.65;;;8.02;;
60478;SDS011;46321;48.398;11.754;2023-02-28T10:56:27;12.48;;;7.68;;
60478;SDS011;46321;48.398;11.754;2023-02-28T11:04:00;12.60;;;7.97;;
60478;SDS011;46321;48.398;11.754;2023-02-28T11:06:26;11.85;;;8.32;;
60478;SDS011;46321;48.398;11.754;2023-02-28T11:08:56;13.63;;;8.43;;
60478;SDS011;46321;48.398;11.754;2023-02-28T11:11:26;13.00;;;7.97;;
60478;SDS011;46321;48.398;11.754;2023-02-28T11:13:55;13.35;;;7.90;;
60478;SDS011;46321;48.398;11.754;2023-02-28T11:16:34;14.30;;;8.27;;
60478;SDS011;46321;48.398;11.754;2023-02-28T11:19:01;14.00;;;8.02;;
60478;SDS011;46321;48.398;11.754;2023-02-28T11:21:30;13.20;;;8.15;;
60478;SDS011;46321;48.398;11.754;2023-02-28T11:24:02;13.88;;;8.07;;
60478;SDS011;46321;48.398;11.754;2023-02-28T11:26:45;11.82;;;8.02;;
60478;SDS011;46321;48.398;11.754;2023-02-28T11:32:30;14.73;;;8.10;;
60478;SDS011;46321;48.398;11.754;2023-02-28T11:34:41;11.30;;;7.97;;
60478;SDS011;46321;48.398;11.754;2023-02-28T11:37:12;14.55;;;8.52;;
60478;SDS011;46321;48.398;11.754;2023-02-28T11:39:42;17.05;;;9.35;;
60478;SDS011;46321;48.398;11.754;2023-02-28T11:50:16;14.32;;;8.25;;
60478;SDS011;46321;48.398;11.754;2023-02-28T12:03:22;14.60;;;8.05;;
60478;SDS011;46321;48.398;11.754;2023-02-28T12:05:58;17.50;;;8.70;;
60478;SDS011;46321;48.398;11.754;2023-02-28T12:08:47;14.45;;;7.65;;
60478;SDS011;46321;48.398;11.754;2023-02-28T12:11:29;13.95;;;7.45;;
60478;SDS011;46321;48.398;11.754;2023-02-28T12:14:18;14.07;;;7.78;;
60478;SDS011;46321;48.398;11.754;2023-02-28T12:20:05;18.00;;;7.97;;
60478;SDS011;46321;48.398;11.754;2023-02-28T12:28:17;14.00;;;7.70;;
60478;SDS011;46321;48.398;11.754;2023-02-28T12:30:53;13.60;;;7.22;;
60478;SDS011;46321;48.398;11.754;2023-02-28T12:33:24;14.20;;;7.32;;
60478;SDS011;46321;48.398;11.754;2023-02-28T12:35:54;16.23;;;7.25;;
60478;SDS011;46321;48.398;11.754;2023-02-28T12:38:22;15.40;;;8.07;;
60478;SDS011;46321;48.398;11.754;2023-02-28T12:48:55;13.52;;;6.82;;
60478;SDS011;46321;48.398;11.754;2023-02-28T12:51:22;17.40;;;8.02;;
60478;SDS011;46321;48.398;11.754;2023-02-28T12:59:19;16.65;;;8.15;;
60478;SDS011;46321;48.398;11.754;2023-02-28T13:07:23;15.60;;;7.43;;
60478;SDS011;46321;48.398;11.754;2023-02-28T13:10:02;16.00;;;7.85;;
60478;SDS011;46321;48.398;11.754;2023-02-28T13:12:32;14.05;;;7.25;;
60478;SDS011;46321;48.398;11.754;2023-02-28T13:15:17;14.23;;;7.53;;
60478;SDS011;46321;48.398;11.754;2023-02-28T13:17:50;15.50;;;7.68;;
60478;SDS011;46321;48.398;11.754;2023-02-28T13:20:27;16.33;;;7.75;;
60478;SDS011;46321;48.398;11.754;2023-02-28T13:22:58;15.60;;;7.45;;
60478;SDS011;46321;48.398;11.754;2023-02-28T13:28:09;16.33;;;8.32;;
60478;SDS011;46321;48.398;11.754;2023-02-28T13:38:42;17.55;;;8.38;;
60478;SDS011;46321;48.398;11.754;2023-02-28T13:44:06;14.25;;;7.03;;
60478;SDS011;46321;48.398;11.754;2023-02-28T13:46:34;13.98;;;7.90;;
60478;SDS011;46321;48.398;11.754;2023-02-28T14:09:16;18.73;;;8.10;;
60478;SDS011;46321;48.398;11.754;2023-02-28T14:11:48;15.43;;;7.40;;
60478;SDS011;46321;48.398;11.754;2023-02-28T14:17:07;17.90;;;8.50;;
60478;SDS011;46321;48.398;11.754;2023-02-28T14:19:39;14.63;;;7.97;;
60478;SDS011;46321;48.398;11.754;2023-02-28T14:33:31;17.55;;;8.45;;
60478;SDS011;46321;48.398;11.754;2023-02-28T14:36:23;18.45;;;7.80;;
60478;SDS011;46321;48.398;11.754;2023-02-28T14:38:53;16.15;;;7.32;;
60478;SDS011;46321;48.398;11.754;2023-02-28T14:41:23;15.70;;;7.65;;
60478;SDS011;46321;48.398;11.754;2023-02-28T14:43:55;16.50;;;7.72;;
60478;SDS011;46321;48.398;11.754;2023-02-28T14:46:37;19.73;;;7.70;;
60478;SDS011;46321;48.398;11.754;2023-02-28T14:49:04;17.33;;;7.85;;
60478;SDS011;46321;48.398;11.754;2023-02-28T14:51:32;15.50;;;7.40;;
60478;SDS011;46321;48.398;11.754;2023-02-28T14:53:59;13.95;;;7.78;;
60478;SDS011;46321;48.398;11.754;2023-02-28T14:56:28;17.10;;;8.02;;
60478;SDS011;46321;48.398;11.754;2023-02-28T14:58:59;14.40;;;7.80;;
60478;SDS011;46321;48.398;11.754;2023-02-28T15:01:24;20.23;;;7.80;;
60478;SDS011;46321;48.398;11.754;2023-02-28T15:03:58;16.80;;;7.82;;
60478;SDS011;46321;48.398;11.754;2023-02-28T15:06:26;18.63;;;7.82;;
60478;SDS011;46321;48.398;11.754;2023-02-28T15:09:13;17.48;;;7.85;;
60478;SDS011;46321;48.398;11.754;2023-02-28T15:11:41;19.20;;;8.27;;
60478;SDS011;46321;48.398;11.754;2023-02-28T15:14:18;16.60;;;7.82;;
60478;SDS011;46321;48.398;11.754;2023-02-28T15:16:47;17.30;;;8.30;;
60478;SDS011;46321;48.398;11.754;2023-02-28T15:19:21;18.33;;;8.15;;
60478;SDS011;46321;48.398;11.754;2023-02-28T15:21:52;17.70;;;8.20;;
60478;SDS011;46321;48.398;11.754;2023-02-28T15:27:14;15.65;;;7.95;;
60478;SDS011;46321;48.398;11.754;2023-02-28T15:29:47;22.65;;;8.73;;
60478;SDS011;46321;48.398;11.754;2023-02-28T15:34:53;14.55;;;7.15;;
60478;SDS011;46321;48.398;11.754;2023-02-28T15:39:58;15.77;;;7.88;;
60478;SDS011;46321;48.398;11.754;2023-02-28T15:42:32;18.27;;;8.73;;
60478;SDS011;46321;48.398;11.754;2023-02-28T15:44:58;18.23;;;8.20;;
60478;SDS011;46321;48.398;11.754;2023-02-28T15:47:26;17.65;;;8.20;;
60478;SDS011;46321;48.398;11.754;2023-02-28T15:49:54;15.07;;;7.68;;
60478;SDS011;46321;48.398;11.754;2023-02-28T15:55:15;15.68;;;7.35;;
60478;SDS011;46321;48.398;11.754;2023-02-28T15:57:44;16.08;;;8.05;;
60478;SDS011;46321;48.398;11.754;2023-02-28T16:00:15;17.60;;;8.10;;
60478;SDS011;46321;48.398;11.754;2023-02-28T16:02:44;14.57;;;8.02;;
60478;SDS011;46321;48.398;11.754;2023-02-28T16:07:38;17.02;;;8.40;;
60478;SDS011;46321;48.398;11.754;2023-02-28T16:10:06;14.95;;;8.00;;
60478;SDS011;46321;48.398;11.754;2023-02-28T16:12:35;17.85;;;8.98;;
60478;SDS011;46321;48.398;11.754;2023-02-28T16:15:05;17.15;;;8.18;;
60478;SDS011;46321;48.398;11.754;2023-02-28T16:17:34;22.05;;;9.50;;
60478;SDS011;46321;48.398;11.754;2023-02-28T16:20:05;18.88;;;9.05;;
60478;SDS011;46321;48.398;11.754;2023-02-28T16:22:41;20.60;;;9.23;;
60478;SDS011;46321;48.398;11.754;2023-02-28T16:25:10;20.83;;;9.13;;
60478;SDS011;46321;48.398;11.754;2023-02-28T16:27:40;18.05;;;9.75;;
60478;SDS011;46321;48.398;11.754;2023-02-28T16:30:07;18.90;;;9.25;;
60478;SDS011;46321;48.398;11.754;2023-02-28T16:32:42;17.88;;;8.73;;
60478;SDS011;46321;48.398;11.754;2023-02-28T16:35:09;18.92;;;8.90;;
60478;SDS011;46321;48.398;11.754;2023-02-28T16:37:36;19.38;;;8.63;;
60478;SDS011;46321;48.398;11.754;2023-02-28T16:40:02;18.35;;;8.30;;
60478;SDS011;46321;48.398;11.754;2023-02-28T16:42:28;19.33;;;9.25;;
60478;SDS011;46321;48.398;11.754;2023-02-28T16:44:54;19.60;;;9.05;;
60478;SDS011;46321;48.398;11.754;2023-02-28T16:47:20;17.92;;;8.90;;
60478;SDS011;46321;48.398;11.754;2023-02-28T16:49:46;19.00;;;9.10;;
60478;SDS011;46321;48.398;11.754;2023-02-28T16:52:12;20.20;;;8.27;;
60478;SDS011;46321;48.398;11.754;2023-02-28T16:54:38;16.73;;;8.80;;
60478;SDS011;46321;48.398;11.754;2023-02-28T16:57:06;21.88;;;8.80;;
60478;SDS011;46321;48.398;11.754;2023-02-28T16:59:32;21.20;;;9.15;;
60478;SDS011;46321;48.398;11.754;2023-02-28T17:01:57;18.80;;;8.80;;